Terminal Aerodrome Forecast
Issued by NWS

Home | Current Version | Previous Version | Graphics & Text | Print | Product List | Glossary On
Versions: 1 2 3 4 5 6 7 8 9 10 11 12 13 14 15
000
FTUS43 KGRB 242345
TAFATW
TAF
KATW 242345Z 2500/2524 11011KT 3SM RA BR BKN007 OVC015
      TEMPO 2500/2502 1 1/2SM RA BR OVC005
     FM250200 12010KT 3SM RA BR BKN005 OVC010 WS015/16035KT
      TEMPO 2502/2504 1 1/2SM RA BR
     FM250600 16008KT 3SM -SHRA BR BKN005 OVC010 WS012/21040KT
     FM251200 17013KT 5SM BR VCSH BKN005 OVC010
      TEMPO 2514/2518 3SM SHRA BKN015
     FM251900 24019G30KT P6SM BKN030=

USA.gov is the U.S. government's official web portal to all federal, state and local government web resources and services.